createdAt,value
2018-11-12T00:02:13.908Z,4.33
2018-11-12T00:04:41.831Z,4.40
2018-11-12T00:07:09.375Z,4.90
2018-11-12T00:11:06.723Z,4.70
2018-11-12T00:13:34.287Z,4.23
2018-11-12T00:16:01.830Z,3.60
2018-11-12T00:18:30.006Z,4.00
2018-11-12T00:20:58.940Z,3.77
2018-11-12T00:23:27.255Z,3.20
2018-11-12T00:25:55.268Z,2.90
2018-11-12T00:28:22.860Z,2.73
2018-11-12T00:30:50.929Z,2.80
2018-11-12T00:33:18.511Z,2.50
2018-11-12T00:35:46.687Z,2.23
2018-11-12T00:38:14.255Z,2.30
2018-11-12T00:40:45.274Z,2.10
2018-11-12T00:43:12.820Z,1.97
2018-11-12T00:45:40.428Z,2.60
2018-11-12T00:48:08.707Z,1.80
2018-11-12T00:50:36.252Z,1.80
2018-11-12T00:53:04.289Z,2.10
2018-11-12T00:55:32.430Z,2.60
2018-11-12T00:58:00.533Z,2.40
2018-11-12T01:00:28.087Z,2.50
2018-11-12T01:02:56.228Z,1.90
2018-11-12T01:05:23.759Z,2.17
2018-11-12T01:07:51.688Z,2.13
2018-11-12T01:10:19.395Z,1.80
2018-11-12T01:12:47.176Z,2.10
2018-11-12T01:15:15.964Z,2.40
2018-11-12T01:19:14.148Z,2.00
2018-11-12T01:21:42.132Z,2.10
2018-11-12T01:24:09.693Z,2.37
2018-11-12T01:26:38.805Z,2.10
2018-11-12T01:29:06.873Z,1.60
2018-11-12T01:31:34.900Z,2.43
2018-11-12T01:34:02.966Z,2.23
2018-11-12T01:36:30.536Z,2.00
2018-11-12T01:38:58.580Z,2.23
2018-11-12T01:41:26.102Z,1.97
2018-11-12T01:43:54.191Z,2.90
2018-11-12T01:46:21.732Z,2.40
2018-11-12T01:48:50.498Z,2.20
2018-11-12T01:51:18.910Z,2.30
2018-11-12T01:53:47.012Z,2.30
2018-11-12T01:56:15.276Z,2.00
2018-11-12T01:58:42.788Z,2.20
2018-11-12T02:01:10.316Z,2.00
2018-11-12T02:03:38.885Z,1.70
2018-11-12T02:06:06.404Z,2.10
2018-11-12T02:08:34.336Z,1.80
2018-11-12T02:11:01.900Z,2.10
2018-11-12T02:13:29.431Z,2.13
2018-11-12T02:15:56.996Z,1.90
2018-11-12T02:18:25.417Z,2.00
2018-11-12T02:20:54.111Z,2.07
2018-11-12T02:23:22.659Z,1.67
2018-11-12T02:25:50.708Z,1.90
2018-11-12T02:28:18.239Z,1.60
2018-11-12T02:30:47.668Z,2.00
2018-11-12T02:33:15.821Z,1.93
2018-11-12T02:35:44.046Z,1.97
2018-11-12T02:38:11.617Z,1.90
2018-11-12T02:40:39.158Z,1.87
2018-11-12T02:43:07.070Z,2.10
2018-11-12T02:45:34.627Z,1.77
2018-11-12T02:48:03.406Z,1.90
2018-11-12T02:50:31.540Z,2.00
2018-11-12T02:52:59.079Z,2.10
2018-11-12T02:55:27.216Z,1.90
2018-11-12T02:57:55.759Z,1.70
2018-11-12T03:00:23.567Z,1.90
2018-11-12T03:02:52.223Z,2.00
2018-11-12T03:05:19.735Z,1.50
2018-11-12T03:07:47.644Z,1.90
2018-11-12T03:10:18.365Z,2.30
2018-11-12T03:12:46.575Z,2.13
2018-11-12T03:15:15.006Z,1.83
2018-11-12T03:17:43.279Z,1.70
2018-11-12T03:20:13.518Z,1.90
2018-11-12T03:22:41.553Z,1.63
2018-11-12T03:25:11.359Z,1.60
2018-11-12T03:27:39.493Z,1.90
2018-11-12T03:30:09.191Z,1.80
2018-11-12T03:32:37.215Z,2.10
2018-11-12T03:35:05.653Z,1.80
2018-11-12T03:37:33.183Z,1.73
2018-11-12T03:40:00.772Z,1.90
2018-11-12T03:42:28.798Z,2.30
2018-11-12T03:44:56.797Z,2.10
2018-11-12T03:47:24.303Z,1.73
2018-11-12T03:49:52.260Z,1.80
2018-11-12T03:52:19.768Z,2.07
2018-11-12T03:54:47.372Z,1.67
2018-11-12T03:57:15.628Z,3.53
2018-11-12T03:59:43.171Z,2.90
2018-11-12T04:02:11.252Z,2.23
2018-11-12T04:04:38.780Z,1.67
2018-11-12T04:07:06.318Z,1.90
2018-11-12T04:09:34.370Z,1.60
2018-11-12T04:12:02.668Z,1.70
2018-11-12T04:14:30.212Z,2.00
2018-11-12T04:16:57.743Z,1.83
2018-11-12T04:19:25.861Z,1.60
2018-11-12T04:21:54.137Z,1.60
2018-11-12T04:24:23.684Z,1.70
2018-11-12T04:26:51.981Z,1.50
2018-11-12T04:29:19.540Z,1.50
2018-11-12T04:31:47.571Z,2.00
2018-11-12T04:34:15.092Z,2.10
2018-11-12T04:36:42.623Z,2.30
2018-11-12T04:39:10.182Z,2.20
2018-11-12T04:41:37.709Z,1.97
2018-11-12T04:44:05.674Z,2.20
2018-11-12T04:46:33.967Z,1.90
2018-11-12T04:49:02.071Z,2.10
2018-11-12T04:51:29.613Z,1.50
2018-11-12T04:53:57.160Z,1.67
2018-11-12T04:56:25.447Z,1.70
2018-11-12T04:58:52.961Z,2.27
2018-11-12T05:01:21.716Z,2.10
2018-11-12T05:03:49.265Z,2.07
2018-11-12T05:06:17.486Z,2.00
2018-11-12T05:08:45.591Z,2.43
2018-11-12T05:11:13.135Z,2.10
2018-11-12T05:13:40.664Z,2.10
2018-11-12T05:16:08.695Z,2.00
2018-11-12T05:18:36.254Z,2.20
2018-11-12T05:21:04.795Z,1.80
2018-11-12T05:23:33.078Z,2.30
2018-11-12T05:26:01.135Z,2.27
2018-11-12T05:28:29.345Z,2.00
2018-11-12T05:30:56.895Z,2.40
2018-11-12T05:33:24.492Z,2.80
2018-11-12T05:35:52.087Z,3.00
2018-11-12T05:38:19.733Z,3.00
2018-11-12T05:40:47.985Z,2.70
2018-11-12T05:43:16.363Z,2.67
2018-11-12T05:45:44.382Z,2.93
2018-11-12T05:48:12.712Z,3.80
2018-11-12T05:50:40.641Z,3.13
2018-11-12T05:53:08.839Z,2.83
2018-11-12T05:55:36.833Z,3.23
2018-11-12T05:59:34.543Z,4.73
2018-11-12T06:02:02.685Z,4.60
2018-11-12T06:04:30.247Z,3.60
2018-11-12T06:06:57.807Z,3.47
2018-11-12T06:09:25.772Z,4.97
2018-11-12T06:11:53.320Z,4.20
2018-11-12T06:14:20.941Z,3.23
2018-11-12T06:16:48.534Z,3.33
2018-11-12T06:19:16.100Z,3.90
2018-11-12T06:21:44.271Z,4.20
2018-11-12T06:24:12.592Z,5.03
2018-11-12T06:26:40.557Z,4.50
2018-11-12T06:29:08.555Z,4.53
2018-11-12T06:31:36.198Z,4.43
2018-11-12T06:34:04.394Z,5.30
2018-11-12T06:36:31.966Z,4.23
2018-11-12T06:39:00.327Z,4.70
2018-11-12T06:41:28.387Z,4.40
2018-11-12T06:43:57.038Z,4.60
2018-11-12T06:46:24.622Z,4.00
2018-11-12T06:48:52.997Z,3.20
2018-11-12T06:51:20.526Z,3.20
2018-11-12T06:53:48.089Z,2.77
2018-11-12T06:56:17.649Z,3.07
2018-11-12T06:58:45.263Z,3.30
2018-11-12T07:01:12.808Z,3.03
2018-11-12T07:03:41.470Z,3.60
2018-11-12T07:06:09.000Z,3.17
2018-11-12T07:08:37.116Z,2.80
2018-11-12T07:11:04.705Z,2.80
2018-11-12T07:13:32.250Z,2.63
2018-11-12T07:16:00.825Z,2.70
2018-11-12T07:18:29.898Z,2.63
2018-11-12T07:20:57.943Z,2.50
2018-11-12T07:23:26.039Z,2.20
2018-11-12T07:25:54.785Z,2.30
2018-11-12T07:28:22.417Z,2.10
2018-11-12T07:30:50.072Z,1.80
2018-11-12T07:33:17.772Z,1.80
2018-11-12T07:35:45.742Z,2.47
2018-11-12T07:38:13.288Z,1.80
2018-11-12T07:40:41.364Z,1.90
2018-11-12T07:43:09.860Z,1.70
2018-11-12T07:45:37.395Z,2.00
2018-11-12T07:48:06.076Z,2.20
2018-11-12T07:50:33.612Z,1.97
2018-11-12T07:53:01.133Z,1.97
2018-11-12T07:55:29.311Z,2.03
2018-11-12T07:57:58.351Z,1.80
2018-11-12T08:00:28.985Z,1.60
2018-11-12T08:03:03.923Z,1.87
2018-11-12T08:05:31.710Z,1.70
2018-11-12T08:08:00.152Z,2.17
2018-11-12T08:10:28.003Z,2.23
2018-11-12T08:12:55.519Z,2.13
2018-11-12T08:15:23.156Z,1.80
2018-11-12T08:17:50.693Z,2.00
2018-11-12T08:20:20.319Z,1.97
2018-11-12T08:22:48.974Z,1.70
2018-11-12T08:25:17.127Z,1.90
2018-11-12T08:27:45.812Z,1.70
2018-11-12T08:30:17.231Z,1.90
2018-11-12T08:32:46.452Z,1.70
2018-11-12T08:35:15.251Z,2.00
2018-11-12T08:37:44.123Z,2.00
2018-11-12T08:40:14.365Z,1.63
2018-11-12T08:42:42.150Z,2.00
2018-11-12T08:45:10.321Z,1.90
2018-11-12T08:47:38.511Z,1.80
2018-11-12T08:50:09.916Z,1.60
2018-11-12T08:52:37.951Z,1.70
2018-11-12T08:55:07.048Z,1.63
2018-11-12T08:57:34.505Z,1.47
2018-11-12T09:00:03.085Z,1.50
2018-11-12T09:02:31.444Z,1.90
2018-11-12T09:04:59.621Z,1.67
2018-11-12T09:07:27.161Z,1.80
2018-11-12T09:09:55.105Z,1.80
2018-11-12T09:12:23.540Z,1.80
2018-11-12T09:14:51.572Z,1.47
2018-11-12T09:17:19.588Z,1.70
2018-11-12T09:19:47.760Z,1.60
2018-11-12T09:22:15.829Z,1.60
2018-11-12T09:24:44.543Z,1.57
2018-11-12T09:27:12.140Z,1.80
2018-11-12T09:29:39.779Z,1.50
2018-11-12T09:32:08.042Z,1.70
2018-11-12T09:34:36.060Z,1.70
2018-11-12T09:37:03.741Z,2.03
2018-11-12T09:39:31.243Z,1.90
2018-11-12T09:41:59.504Z,1.60
2018-11-12T09:44:27.135Z,1.70
2018-11-12T09:46:54.889Z,1.40
2018-11-12T09:49:22.812Z,1.63
2018-11-12T09:51:50.395Z,1.70
2018-11-12T09:54:18.039Z,1.80
2018-11-12T09:56:46.223Z,1.93
2018-11-12T09:59:13.877Z,1.80
2018-11-12T10:01:42.818Z,1.67
2018-11-12T10:04:10.733Z,1.70
2018-11-12T10:06:38.368Z,1.40
2018-11-12T10:09:10.841Z,1.73
2018-11-12T10:11:38.791Z,1.70
2018-11-12T10:14:08.732Z,1.87
2018-11-12T10:16:38.291Z,1.77
2018-11-12T10:19:02.928Z,1.73
2018-11-12T10:21:31.403Z,1.93
2018-11-12T10:23:59.359Z,2.00
2018-11-12T10:26:28.283Z,2.07
2018-11-12T10:28:56.552Z,1.87
2018-11-12T10:31:25.176Z,2.07
2018-11-12T10:33:52.888Z,1.50
2018-11-12T10:36:20.428Z,1.93
2018-11-12T10:38:48.020Z,2.00
2018-11-12T10:41:15.583Z,2.90
2018-11-12T10:43:43.300Z,1.60
2018-11-12T10:46:10.931Z,1.80
2018-11-12T10:48:39.163Z,1.60
2018-11-12T10:51:07.609Z,1.63
2018-11-12T10:53:35.823Z,1.40
2018-11-12T10:56:05.838Z,1.60
2018-11-12T10:58:34.230Z,1.53
2018-11-12T11:01:08.411Z,1.80
2018-11-12T11:03:42.575Z,1.60
2018-11-12T11:06:11.220Z,1.43
2018-11-12T11:08:39.318Z,1.67
2018-11-12T11:11:07.652Z,1.67
2018-11-12T11:13:35.988Z,1.23
2018-11-12T11:16:04.320Z,1.50
2018-11-12T11:18:31.948Z,1.80
2018-11-12T11:21:00.090Z,1.50
2018-11-12T11:23:27.614Z,1.40
2018-11-12T11:25:56.940Z,1.20
2018-11-12T11:28:24.473Z,1.50
2018-11-12T11:30:52.905Z,1.30
2018-11-12T11:33:20.582Z,1.30
2018-11-12T11:35:48.068Z,1.37
2018-11-12T11:38:15.892Z,1.83
2018-11-12T11:40:43.502Z,1.50
2018-11-12T11:43:11.280Z,1.47
2018-11-12T11:45:38.857Z,1.43
2018-11-12T11:48:07.101Z,1.43
2018-11-12T11:50:34.623Z,1.30
2018-11-12T11:53:02.164Z,1.40
2018-11-12T11:55:30.983Z,1.50
2018-11-12T11:57:58.477Z,1.93
2018-11-12T12:00:27.760Z,1.40
2018-11-12T12:02:56.885Z,1.50
2018-11-12T12:05:25.072Z,1.20
2018-11-12T12:07:53.675Z,1.40
2018-11-12T12:10:21.999Z,1.30
2018-11-12T12:12:51.399Z,1.60
2018-11-12T12:15:19.943Z,1.60
2018-11-12T12:17:47.480Z,1.20
2018-11-12T12:20:19.138Z,2.80
2018-11-12T12:22:47.488Z,2.83
2018-11-12T12:25:16.562Z,1.53
2018-11-12T12:27:45.364Z,1.90
2018-11-12T12:30:16.393Z,1.40
2018-11-12T12:32:45.110Z,1.40
2018-11-12T12:35:13.189Z,1.60
2018-11-12T12:37:42.123Z,2.07
2018-11-12T12:40:11.199Z,1.50
2018-11-12T12:42:39.581Z,1.90
2018-11-12T12:45:08.566Z,2.23
2018-11-12T12:47:36.074Z,2.97
2018-11-12T12:50:06.220Z,3.03
2018-11-12T12:52:33.716Z,3.20
2018-11-12T12:55:02.858Z,3.60
2018-11-12T12:57:30.436Z,4.13
2018-11-12T12:59:59.208Z,3.80
2018-11-12T13:02:27.368Z,4.30
2018-11-12T13:04:54.881Z,4.87
2018-11-12T13:07:23.006Z,5.50
2018-11-12T13:09:51.605Z,16.17
2018-11-12T13:12:19.896Z,18.30
2018-11-12T13:14:47.571Z,7.77
2018-11-12T13:17:15.220Z,6.37
2018-11-12T13:19:42.796Z,6.50
2018-11-12T13:22:11.256Z,7.20
2018-11-12T13:24:39.532Z,6.93
2018-11-12T13:27:07.154Z,7.00
2018-11-12T13:29:34.660Z,6.17
2018-11-12T13:32:02.191Z,5.60
2018-11-12T13:34:29.708Z,6.30
2018-11-12T13:36:57.357Z,7.30
2018-11-12T13:39:25.095Z,7.47
2018-11-12T13:41:52.551Z,6.50
2018-11-12T13:44:21.288Z,7.37
2018-11-12T13:46:54.319Z,6.20
2018-11-12T13:49:22.343Z,6.90
2018-11-12T13:51:49.885Z,7.43
2018-11-12T13:54:17.941Z,7.90
2018-11-12T13:56:45.996Z,7.73
2018-11-12T13:59:13.566Z,7.20
2018-11-12T14:01:42.506Z,6.40
2018-11-12T14:04:10.084Z,6.40
2018-11-12T14:06:38.308Z,6.50
2018-11-12T14:09:08.676Z,5.00
2018-11-12T14:11:36.224Z,4.90
2018-11-12T14:14:04.261Z,4.30
2018-11-12T14:16:32.333Z,4.97
2018-11-12T14:19:00.901Z,4.57
2018-11-12T14:21:29.549Z,4.27
2018-11-12T14:23:57.773Z,7.17
2018-11-12T14:26:25.970Z,6.87
2018-11-12T14:28:53.539Z,8.17
2018-11-12T14:31:21.053Z,7.60
2018-11-12T14:33:48.590Z,4.60
2018-11-12T14:36:16.093Z,4.93
2018-11-12T14:38:43.728Z,3.40
2018-11-12T14:41:11.709Z,2.77
2018-11-12T14:43:39.941Z,2.23
2018-11-12T14:46:08.912Z,2.37
2018-11-12T14:48:36.935Z,3.53
2018-11-12T14:51:05.929Z,3.40
2018-11-12T14:53:33.456Z,3.97
2018-11-12T14:56:01.824Z,3.60
2018-11-12T14:58:29.351Z,3.53
2018-11-12T15:00:57.561Z,6.40
2018-11-12T15:03:25.733Z,6.27
2018-11-12T15:05:53.268Z,5.40
2018-11-12T15:08:21.918Z,7.00
2018-11-12T15:10:49.812Z,7.40
2018-11-12T15:13:17.319Z,6.43
2018-11-12T15:15:45.516Z,6.00
2018-11-12T15:18:13.024Z,6.00
2018-11-12T15:20:41.888Z,6.80
2018-11-12T15:23:10.098Z,6.90
2018-11-12T15:25:38.251Z,6.63
2018-11-12T15:28:05.775Z,6.70
2018-11-12T15:30:33.904Z,7.70
2018-11-12T15:33:01.424Z,5.50
2018-11-12T15:35:28.996Z,6.03
2018-11-12T15:37:57.104Z,4.90
2018-11-12T15:40:25.356Z,4.40
2018-11-12T15:42:54.221Z,3.90
2018-11-12T15:45:23.089Z,3.80
2018-11-12T15:47:51.224Z,4.30
2018-11-12T15:50:22.635Z,4.37
2018-11-12T15:52:50.162Z,5.40
2018-11-12T15:55:18.335Z,5.27
2018-11-12T15:57:45.971Z,4.17
2018-11-12T16:00:14.852Z,3.60
2018-11-12T16:02:43.680Z,4.63
2018-11-12T16:05:11.904Z,4.27
2018-11-12T16:07:39.684Z,10.27
2018-11-12T16:10:10.838Z,9.47
2018-11-12T16:12:39.022Z,10.33
2018-11-12T16:15:08.037Z,10.90
2018-11-12T16:17:36.855Z,10.30
2018-11-12T16:20:07.936Z,12.43
2018-11-12T16:22:36.156Z,13.00
2018-11-12T16:25:05.406Z,10.97
2018-11-12T16:27:33.496Z,9.20
2018-11-12T16:30:01.885Z,7.60
2018-11-12T16:32:29.484Z,6.33
2018-11-12T16:34:58.777Z,6.33
2018-11-12T16:37:26.958Z,5.73
2018-11-12T16:39:55.276Z,5.73
2018-11-12T16:42:22.897Z,4.60
2018-11-12T16:44:50.447Z,4.17
2018-11-12T16:47:19.026Z,3.17
2018-11-12T16:49:47.462Z,3.43
2018-11-12T16:52:14.973Z,5.87
2018-11-12T16:54:42.563Z,6.73
2018-11-12T16:57:11.695Z,7.07
2018-11-12T16:59:39.869Z,8.50
2018-11-12T17:02:08.776Z,9.70
2018-11-12T17:04:36.336Z,7.00
2018-11-12T17:07:03.884Z,6.20
2018-11-12T17:09:32.152Z,4.80
2018-11-12T17:12:00.316Z,5.20
2018-11-12T17:14:27.818Z,6.17
2018-11-12T17:16:56.032Z,6.57
2018-11-12T17:19:24.135Z,6.70
2018-11-12T17:21:52.376Z,5.23
2018-11-12T17:24:20.936Z,5.77
2018-11-12T17:26:48.456Z,6.53
2018-11-12T17:29:16.017Z,6.00
2018-11-12T17:31:43.660Z,7.13
2018-11-12T17:34:11.192Z,9.20
2018-11-12T17:36:39.463Z,11.07
2018-11-12T17:39:07.701Z,11.80
2018-11-12T17:41:35.698Z,10.10
2018-11-12T17:44:03.789Z,12.53
2018-11-12T17:46:31.893Z,13.00
2018-11-12T17:48:59.885Z,12.87
2018-11-12T17:51:28.026Z,19.80
2018-11-12T17:53:55.607Z,16.70
2018-11-12T17:56:24.291Z,14.10
2018-11-12T17:58:51.804Z,9.17
2018-11-12T18:01:20.256Z,8.97
2018-11-12T18:03:47.731Z,9.70
2018-11-12T18:06:15.250Z,10.37
2018-11-12T18:08:43.287Z,11.00
2018-11-12T18:11:10.798Z,8.73
2018-11-12T18:13:38.828Z,13.10
2018-11-12T18:16:06.429Z,12.93
2018-11-12T18:18:33.948Z,13.07
2018-11-12T18:21:02.596Z,13.77
2018-11-12T18:23:30.094Z,12.63
2018-11-12T18:25:58.291Z,11.10
2018-11-12T18:28:25.805Z,11.20
2018-11-12T18:30:53.996Z,10.40
2018-11-12T18:33:21.447Z,10.47
2018-11-12T18:35:49.491Z,10.50
2018-11-12T18:38:17.508Z,9.37
2018-11-12T18:40:46.091Z,10.67
2018-11-12T18:43:13.590Z,7.87
2018-11-12T18:45:41.920Z,8.20
2018-11-12T18:48:10.302Z,6.80
2018-11-12T18:50:38.845Z,6.53
2018-11-12T18:53:07.033Z,7.30
2018-11-12T18:55:34.973Z,8.60
2018-11-12T18:58:02.532Z,6.73
2018-11-12T19:00:30.043Z,9.03
2018-11-12T19:02:58.518Z,7.37
2018-11-12T19:05:27.582Z,7.47
2018-11-12T19:07:57.386Z,7.20
2018-11-12T19:10:27.703Z,6.93
2018-11-12T19:12:55.212Z,6.57
2018-11-12T19:15:25.129Z,8.00
2018-11-12T19:17:55.628Z,8.37
2018-11-12T19:20:23.898Z,7.50
2018-11-12T19:22:51.926Z,7.70
2018-11-12T19:25:19.952Z,7.10
2018-11-12T19:27:47.475Z,7.10
2018-11-12T19:30:17.574Z,7.70
2018-11-12T19:32:45.218Z,8.50
2018-11-12T19:35:15.828Z,9.00
2018-11-12T19:37:44.013Z,9.43
2018-11-12T19:40:13.968Z,9.40
2018-11-12T19:42:42.616Z,8.40
2018-11-12T19:45:11.745Z,9.80
2018-11-12T19:47:39.821Z,10.57
2018-11-12T19:50:10.413Z,10.87
2018-11-12T19:52:38.643Z,8.80
2018-11-12T19:55:07.196Z,9.03
2018-11-12T19:57:34.710Z,10.40
2018-11-12T20:00:02.887Z,8.67
2018-11-12T20:02:31.327Z,7.40
2018-11-12T20:05:00.195Z,9.30
2018-11-12T20:07:29.365Z,8.67
2018-11-12T20:09:57.438Z,9.17
2018-11-12T20:12:25.015Z,14.30
2018-11-12T20:14:52.592Z,11.60
2018-11-12T20:17:20.148Z,10.00
2018-11-12T20:19:47.696Z,9.03
2018-11-12T20:22:15.761Z,9.50
2018-11-12T20:24:43.904Z,10.20
2018-11-12T20:27:11.526Z,8.80
2018-11-12T20:29:39.752Z,8.83
2018-11-12T20:32:07.329Z,8.67
2018-11-12T20:34:34.981Z,12.37
2018-11-12T20:37:03.130Z,11.07
2018-11-12T20:39:30.676Z,11.90
2018-11-12T20:41:58.194Z,9.17
2018-11-12T20:44:26.055Z,10.27
2018-11-12T20:46:54.360Z,12.53
2018-11-12T20:49:22.860Z,12.13
2018-11-12T20:51:50.652Z,14.70
2018-11-12T20:54:18.280Z,12.67
2018-11-12T20:56:46.296Z,10.30
2018-11-12T20:59:13.829Z,10.93
2018-11-12T21:01:41.989Z,9.57
2018-11-12T21:04:09.808Z,11.77
2018-11-12T21:06:39.062Z,15.30
2018-11-12T21:09:10.165Z,15.43
2018-11-12T21:11:39.093Z,13.53
2018-11-12T21:14:06.777Z,18.33
2018-11-12T21:16:35.037Z,15.47
2018-11-12T21:19:02.636Z,13.67
2018-11-12T21:21:30.890Z,13.37
2018-11-12T21:23:58.439Z,13.20
2018-11-12T21:26:26.767Z,11.57
2018-11-12T21:28:54.333Z,10.00
2018-11-12T21:31:22.314Z,11.20
2018-11-12T21:33:50.008Z,8.83
2018-11-12T21:36:18.221Z,11.20
2018-11-12T21:38:46.486Z,11.90
2018-11-12T21:41:15.066Z,10.17
2018-11-12T21:43:43.524Z,11.30
2018-11-12T21:46:11.108Z,10.47
2018-11-12T21:48:39.258Z,11.47
2018-11-12T21:51:08.011Z,9.07
2018-11-12T21:53:36.385Z,10.53
2018-11-12T21:56:04.842Z,12.70
2018-11-12T21:58:32.487Z,13.63
2018-11-12T22:01:00.747Z,12.97
2018-11-12T22:03:28.892Z,15.70
2018-11-12T22:05:56.589Z,16.40
2018-11-12T22:08:24.253Z,12.40
2018-11-12T22:10:52.615Z,10.70
2018-11-12T22:13:20.911Z,11.00
2018-11-12T22:15:48.456Z,12.80
2018-11-12T22:18:15.986Z,12.50
2018-11-12T22:20:43.939Z,12.07
2018-11-12T22:23:11.481Z,10.43
2018-11-12T22:25:40.243Z,11.63
2018-11-12T22:28:07.933Z,10.37
2018-11-12T22:30:35.513Z,10.53
2018-11-12T22:33:03.099Z,9.27
2018-11-12T22:35:31.170Z,10.73
2018-11-12T22:37:59.352Z,10.33
2018-11-12T22:40:28.409Z,8.60
2018-11-12T22:42:55.951Z,9.17
2018-11-12T22:45:24.770Z,9.00
2018-11-12T22:47:53.306Z,9.00
2018-11-12T22:50:21.961Z,8.10
2018-11-12T22:52:50.173Z,9.10
2018-11-12T22:55:19.644Z,7.90
2018-11-12T22:57:47.901Z,6.20
2018-11-12T23:00:24.890Z,7.00
2018-11-12T23:02:53.868Z,6.63
2018-11-12T23:05:21.578Z,6.97
2018-11-12T23:07:50.241Z,7.60
2018-11-12T23:10:19.638Z,7.60
2018-11-12T23:12:47.181Z,7.90
2018-11-12T23:15:15.950Z,7.40
2018-11-12T23:17:43.468Z,9.20
2018-11-12T23:20:26.495Z,6.80
2018-11-12T23:22:54.285Z,6.63
2018-11-12T23:25:22.837Z,8.00
2018-11-12T23:27:51.322Z,7.10
2018-11-12T23:30:20.048Z,6.60
2018-11-12T23:32:48.241Z,7.50
2018-11-12T23:35:17.696Z,6.40
2018-11-12T23:37:45.811Z,5.80
2018-11-12T23:40:14.238Z,6.00
2018-11-12T23:42:43.073Z,5.80
2018-11-12T23:45:10.621Z,6.57
2018-11-12T23:47:38.548Z,7.30
2018-11-12T23:50:13.413Z,7.00
2018-11-12T23:52:42.265Z,7.50
2018-11-12T23:55:11.115Z,6.80
2018-11-12T23:57:39.013Z,7.83
